Time;durP1;ratioP1;P1;durP2;ratioP2;P2;SDS_P1;SDS_P2;PMS_P1;PMS_P2;Temp;Humidity;BMP_temperature;BMP_pressure;BME280_temperature;BME280_humidity;BME280_pressure;Samples;Min_cycle;Max_cycle;Signal;HPM_P1;HPM_P2
2022/02/16 00:01:04;;;;;;;11.80;6.00;;;;;;;-0.30;78.49;98948.91;104871;1271;74734;-24
2022/02/16 00:03:33;;;;;;;13.20;6.00;;;;;;;0.36;77.01;98951.46;104962;1271;75163;-24
2022/02/16 00:06:02;;;;;;;13.00;7.30;;;;;;;0.63;75.66;98946.09;104905;1271;74593;-24
2022/02/16 00:08:30;;;;;;;7.40;3.70;;;;;;;0.56;75.66;98946.86;104967;1271;61096;-24
2022/02/16 00:10:59;;;;;;;13.90;7.20;;;;;;;0.33;75.81;98944.23;104928;1271;61070;-24
2022/02/16 00:13:28;;;;;;;18.80;8.10;;;;;;;0.11;76.62;98939.50;105310;1270;75341;-24
2022/02/16 00:15:56;;;;;;;9.40;4.50;;;;;;;-0.10;77.11;98933.49;105088;1271;75913;-24
2022/02/16 00:18:24;;;;;;;10.10;5.40;;;;;;;-0.27;77.88;98933.14;104910;1269;74116;-24
2022/02/16 00:20:53;;;;;;;10.50;7.60;;;;;;;0.12;77.65;98930.38;104930;1271;61025;-23
2022/02/16 00:23:21;;;;;;;12.40;7.00;;;;;;;0.53;76.01;98927.34;104963;1271;61021;-24
2022/02/16 00:25:50;;;;;;;12.60;7.20;;;;;;;0.56;75.77;98928.91;104979;1271;75792;-24
2022/02/16 00:28:18;;;;;;;9.90;4.90;;;;;;;0.41;75.89;98926.50;104949;1271;75966;-23
2022/02/16 00:30:47;;;;;;;13.30;6.10;;;;;;;0.19;76.42;98929.23;105013;1270;74479;-24
2022/02/16 00:33:16;;;;;;;11.50;6.90;;;;;;;-0.04;77.13;98929.66;104985;1270;61127;-23
2022/02/16 00:35:44;;;;;;;14.60;7.10;;;;;;;-0.10;78.10;98927.14;104931;1271;61207;-24
2022/02/16 00:38:13;;;;;;;13.00;6.60;;;;;;;0.42;76.93;98925.25;105050;1270;75728;-24
2022/02/16 00:40:42;;;;;;;13.30;7.60;;;;;;;0.62;75.69;98922.71;105142;1271;75839;-24
2022/02/16 00:43:10;;;;;;;9.10;5.70;;;;;;;0.55;75.69;98924.39;105078;1271;73615;-24
2022/02/16 00:45:39;;;;;;;12.00;6.10;;;;;;;0.36;76.06;98918.30;104941;1271;61115;-23
2022/02/16 00:48:07;;;;;;;11.80;5.90;;;;;;;0.12;76.58;98915.54;105270;1271;62164;-24
2022/02/16 00:50:39;;;;;;;13.60;7.10;;;;;;;-0.09;77.17;98916.21;104904;1271;71568;-24
2022/02/16 00:53:08;;;;;;;6.40;3.90;;;;;;;-0.02;77.87;98908.58;104904;1271;75137;-23
2022/02/16 00:55:36;;;;;;;11.20;5.90;;;;;;;0.63;76.52;98909.83;104953;1271;74489;-24
2022/02/16 00:58:10;;;;;;;11.00;7.00;;;;;;;0.86;75.08;98904.25;105161;1271;62153;-23
2022/02/16 01:00:39;;;;;;;13.00;7.60;;;;;;;0.76;74.85;98904.34;105175;1271;61137;-24
2022/02/16 01:03:08;;;;;;;14.00;7.90;;;;;;;0.55;75.29;98898.92;105419;1271;75335;-24
2022/02/16 01:05:38;;;;;;;14.40;9.00;;;;;;;0.31;75.96;98895.98;105180;1271;76067;-24
2022/02/16 01:08:08;;;;;;;18.50;8.80;;;;;;;0.09;76.54;98888.70;105016;1272;76025;-24
2022/02/16 01:10:38;;;;;;;19.10;9.90;;;;;;;-0.11;77.26;98887.44;104914;1271;61176;-24
2022/02/16 01:13:06;;;;;;;10.90;6.70;;;;;;;-0.18;77.86;98886.70;105168;1271;61025;-24
2022/02/16 01:15:36;;;;;;;11.10;6.70;;;;;;;0.44;76.84;98887.91;105395;1271;74000;-24
2022/02/16 01:18:05;;;;;;;11.30;6.00;;;;;;;0.80;75.37;98889.80;105181;1271;75034;-23
2022/02/16 01:20:47;;;;;;;13.30;7.30;;;;;;;0.73;75.04;98884.81;105150;1271;74433;-24
2022/02/16 01:23:15;;;;;;;14.40;7.50;;;;;;;0.51;75.42;98878.06;105289;1271;61099;-23
2022/02/16 01:25:45;;;;;;;11.90;7.20;;;;;;;0.29;76.18;98881.55;105058;1270;61088;-24
2022/02/16 01:28:35;;;;;;;9.50;6.00;;;;;;;0.01;76.48;98877.23;104943;1271;75888;-24
2022/02/16 01:31:04;;;;;;;9.00;5.30;;;;;;;-0.12;77.52;98873.84;105015;1271;76145;-23
2022/02/16 01:33:35;;;;;;;10.50;4.70;;;;;;;0.38;76.45;98875.02;104974;1271;74468;-24
2022/02/16 01:36:04;;;;;;;7.30;4.90;;;;;;;0.57;75.37;98873.52;104993;1271;61113;-24
2022/02/16 01:38:34;;;;;;;13.70;7.30;;;;;;;0.41;75.55;98868.77;105131;1272;61140;-24
2022/02/16 01:41:22;;;;;;;10.00;5.60;;;;;;;0.10;75.78;98870.89;105189;1271;75309;-23
2022/02/16 01:43:56;;;;;;;17.10;8.30;;;;;;;-0.18;76.66;98869.30;105373;1271;73270;-24
2022/02/16 01:46:25;;;;;;;13.00;7.10;;;;;;;-0.46;77.38;98866.80;105424;1271;73131;-24
2022/02/16 01:48:56;;;;;;;12.70;6.50;;;;;;;-0.41;77.95;98866.59;105367;1271;61856;-23
2022/02/16 01:51:30;;;;;;;18.40;8.60;;;;;;;0.12;76.86;98867.23;105130;1271;61006;-24
2022/02/16 01:53:58;;;;;;;12.10;6.80;;;;;;;0.27;76.06;98879.07;105163;1271;73143;-24
2022/02/16 01:56:26;;;;;;;12.10;4.70;;;;;;;0.16;76.12;98880.91;105374;1270;74897;-23
2022/02/16 01:58:55;;;;;;;15.30;8.00;;;;;;;-0.06;76.69;98886.20;105020;1271;74632;-24
2022/02/16 02:01:26;;;;;;;8.40;4.70;;;;;;;-0.22;77.39;98886.36;104795;1271;61526;-24
2022/02/16 02:04:00;;;;;;;9.40;6.40;;;;;;;-0.38;77.74;98880.80;104781;1271;61049;-23
2022/02/16 02:06:31;;;;;;;9.40;5.20;;;;;;;-0.48;78.30;98882.90;105335;1271;76033;-24
2022/02/16 02:09:00;;;;;;;9.70;5.70;;;;;;;0.09;77.91;98877.59;105382;1271;76168;-23
2022/02/16 02:11:28;;;;;;;12.00;7.30;;;;;;;0.74;76.20;98872.63;105132;1271;74518;-23
2022/02/16 02:14:04;;;;;;;8.60;5.30;;;;;;;0.86;75.44;98868.19;104850;1271;61090;-24
2022/02/16 02:17:05;;;;;;;12.70;6.60;;;;;;;0.65;75.53;98871.51;104977;1271;61093;-23
2022/02/16 02:19:34;;;;;;;14.10;6.30;;;;;;;0.42;75.74;98873.31;105419;1270;74174;-24
2022/02/16 02:22:03;;;;;;;13.10;5.90;;;;;;;0.17;76.18;98871.98;105209;1271;74539;-24
2022/02/16 02:24:32;;;;;;;19.20;9.00;;;;;;;-0.12;76.50;98871.41;105366;1271;74370;-24
2022/02/16 02:27:00;;;;;;;12.30;5.70;;;;;;;-0.37;77.67;98866.98;105360;1271;61354;-23
2022/02/16 02:29:31;;;;;;;12.00;6.10;;;;;;;0.01;77.29;98872.27;105161;1271;61119;-24
2022/02/16 02:32:03;;;;;;;17.40;8.70;;;;;;;0.54;75.66;98874.20;105128;1271;74715;-24
2022/02/16 02:34:31;;;;;;;14.40;6.50;;;;;;;0.51;75.20;98874.47;104990;1271;76090;-24
2022/02/16 02:37:00;;;;;;;9.90;5.60;;;;;;;0.24;75.62;98876.12;105405;1271;74641;-24
2022/02/16 02:39:30;;;;;;;10.30;5.30;;;;;;;-0.06;76.10;98876.84;105149;1271;61153;-24
2022/02/16 02:41:59;;;;;;;12.40;6.40;;;;;;;-0.34;77.17;98874.52;105125;1271;61068;-24
2022/02/16 02:44:28;;;;;;;11.90;5.80;;;;;;;-0.62;77.22;98868.77;105292;1271;75602;-24
2022/02/16 02:46:57;;;;;;;12.60;6.10;;;;;;;-0.88;77.56;98864.32;104905;1271;76118;-26
2022/02/16 02:49:28;;;;;;;10.30;5.40;;;;;;;-1.09;78.28;98860.80;104972;1271;71524;-24
2022/02/16 02:51:56;;;;;;;12.00;5.80;;;;;;;-0.64;78.38;98860.67;104971;1270;61032;-24
2022/02/16 02:54:25;;;;;;;11.10;5.50;;;;;;;-0.16;76.83;98856.41;105057;1270;61247;-24
2022/02/16 02:56:54;;;;;;;17.40;7.80;;;;;;;-0.16;76.66;98855.38;105017;1271;75557;-24
2022/02/16 02:59:23;;;;;;;11.00;6.80;;;;;;;-0.37;76.83;98858.60;105398;1270;75154;-24
2022/02/16 03:01:54;;;;;;;15.60;7.20;;;;;;;-0.67;76.95;98860.96;105388;1271;74385;-24
2022/02/16 03:04:23;;;;;;;12.30;7.40;;;;;;;-0.98;77.57;98858.20;105115;1271;61124;-24
2022/02/16 03:06:51;;;;;;;10.10;6.60;;;;;;;-1.26;78.12;98852.58;105289;1271;61124;-24
2022/02/16 03:09:20;;;;;;;7.30;3.90;;;;;;;-1.48;79.02;98846.85;105387;1271;72861;-24
2022/02/16 03:11:48;;;;;;;12.30;5.40;;;;;;;-1.08;79.24;98852.58;105156;1271;74948;-24
2022/02/16 03:14:18;;;;;;;8.50;5.40;;;;;;;-0.53;77.86;98857.02;105375;1270;74748;-24
2022/02/16 03:16:46;;;;;;;14.30;8.10;;;;;;;-0.49;76.93;98856.20;105116;1271;61867;-24
2022/02/16 03:19:15;;;;;;;12.70;6.90;;;;;;;-0.72;77.22;98858.91;105219;1271;61702;-24
2022/02/16 03:21:43;;;;;;;13.30;7.20;;;;;;;-1.00;77.68;98857.94;105381;1271;75263;-24
2022/02/16 03:24:12;;;;;;;12.80;5.90;;;;;;;-1.28;78.71;98856.55;105408;1271;75003;-24
2022/02/16 03:26:41;;;;;;;12.70;6.60;;;;;;;-1.53;79.65;98855.91;105129;1271;73066;-24
2022/02/16 03:29:10;;;;;;;13.10;5.60;;;;;;;-1.57;80.26;98854.14;105173;1271;61566;-24
2022/02/16 03:31:46;;;;;;;13.20;6.00;;;;;;;-0.90;79.09;98858.06;105410;1271;61211;-24
2022/02/16 03:34:15;;;;;;;15.20;7.20;;;;;;;-0.57;78.14;98861.60;105103;1271;75388;-24
2022/02/16 03:36:47;;;;;;;11.00;6.40;;;;;;;-0.61;78.18;98862.27;104946;1271;75902;-24
2022/02/16 03:39:15;;;;;;;13.10;6.80;;;;;;;-0.84;78.71;98860.73;104866;1272;74232;-24
2022/02/16 03:41:44;;;;;;;9.90;5.90;;;;;;;-1.08;78.80;98858.89;104941;1271;61069;-24
2022/02/16 03:44:13;;;;;;;12.10;5.50;;;;;;;-1.35;79.43;98863.10;104933;1271;61099;-24
2022/02/16 03:46:47;;;;;;;6.60;4.90;;;;;;;-1.59;80.13;98854.23;104992;1271;75456;-24
2022/02/16 03:49:15;;;;;;;12.40;6.40;;;;;;;-1.22;80.23;98849.67;104908;1271;75018;-24
2022/02/16 03:51:45;;;;;;;14.70;8.10;;;;;;;-0.76;78.86;98845.43;104936;1269;72932;-24
2022/02/16 03:54:17;;;;;;;10.90;5.40;;;;;;;-0.77;78.37;98843.80;105084;1271;61031;-24
2022/02/16 03:56:46;;;;;;;15.00;7.40;;;;;;;-0.98;78.72;98835.88;104986;1271;61089;-24
2022/02/16 03:59:14;;;;;;;12.70;6.60;;;;;;;-1.22;79.17;98831.13;104909;1271;75292;-24
2022/02/16 04:02:08;;;;;;;13.30;6.10;;;;;;;-1.50;79.73;98834.34;104761;1271;76007;-24
2022/02/16 04:04:37;;;;;;;11.80;7.60;;;;;;;-1.73;80.55;98832.41;105015;1271;74173;-24
2022/02/16 04:07:06;;;;;;;8.60;4.60;;;;;;;-1.88;80.70;98837.02;104940;1270;61827;-24
2022/02/16 04:09:34;;;;;;;14.50;6.80;;;;;;;-1.40;80.72;98839.23;104904;1271;62148;-24
2022/02/16 04:12:23;;;;;;;12.30;6.30;;;;;;;-0.74;78.69;98839.06;104961;1271;76919;-25
2022/02/16 04:14:52;;;;;;;12.60;6.50;;;;;;;-0.73;78.42;98840.41;105094;1271;75974;-24
2022/02/16 04:17:21;;;;;;;12.40;7.20;;;;;;;-0.90;78.88;98835.76;105281;1271;74506;-24
2022/02/16 04:19:50;;;;;;;11.70;7.10;;;;;;;-1.18;79.23;98826.21;105213;1269;61296;-24
2022/02/16 04:22:18;;;;;;;10.60;5.90;;;;;;;-1.46;79.60;98827.55;105158;1271;62027;-24
2022/02/16 04:24:46;;;;;;;13.30;7.60;;;;;;;-1.74;80.09;98820.55;105234;1271;75487;-24
2022/02/16 04:27:15;;;;;;;10.00;6.10;;;;;;;-1.91;81.20;98821.77;105230;1271;75141;-24
2022/02/16 04:29:44;;;;;;;15.80;8.30;;;;;;;-1.30;80.77;98823.05;104944;1271;74295;-24
2022/02/16 04:32:13;;;;;;;15.60;8.50;;;;;;;-0.79;79.28;98819.45;104949;1271;61146;-24
2022/02/16 04:34:42;;;;;;;14.10;7.30;;;;;;;-0.80;78.53;98817.47;104991;1271;61035;-24
2022/02/16 04:37:11;;;;;;;11.60;7.00;;;;;;;-1.04;79.02;98812.73;104960;1271;75288;-24
2022/02/16 04:40:02;;;;;;;12.60;6.80;;;;;;;-1.32;79.35;98816.51;104822;1272;73918;-24
2022/02/16 04:42:33;;;;;;;13.50;6.30;;;;;;;-1.67;79.70;98815.67;104959;1271;74430;-24
2022/02/16 04:45:30;;;;;;;12.80;6.80;;;;;;;-1.92;80.31;98817.89;104930;1271;61132;-24
2022/02/16 04:48:01;;;;;;;10.30;5.50;;;;;;;-2.09;81.12;98811.14;105036;1271;61131;-24
2022/02/16 04:50:34;;;;;;;14.10;7.80;;;;;;;-1.46;80.81;98801.49;105073;1271;74644;-24
2022/02/16 04:53:06;;;;;;;11.80;6.40;;;;;;;-0.94;79.42;98797.05;105093;1271;74513;-24
2022/02/16 04:55:37;;;;;;;7.30;4.80;;;;;;;-0.97;78.89;98797.15;104933;1271;74417;-24
2022/02/16 04:58:10;;;;;;;11.20;5.10;;;;;;;-1.22;79.57;98795.00;105068;1271;61156;-24
2022/02/16 05:00:38;;;;;;;14.10;6.50;;;;;;;-1.45;80.43;98796.87;105277;1271;60979;-24
2022/02/16 05:03:24;;;;;;;10.70;5.80;;;;;;;-1.71;80.86;98801.69;105231;1271;74047;-24
2022/02/16 05:05:54;;;;;;;9.50;4.00;;;;;;;-1.89;81.24;98807.09;104928;1270;75818;-24
2022/02/16 05:08:24;;;;;;;11.80;6.20;;;;;;;-1.46;81.17;98811.20;104952;1271;74327;-24
2022/02/16 05:10:53;;;;;;;11.20;6.60;;;;;;;-0.91;79.74;98811.74;105058;1271;61038;-25
2022/02/16 05:13:36;;;;;;;9.00;5.60;;;;;;;-0.86;78.95;98808.14;105150;1271;61153;-25
2022/02/16 05:16:04;;;;;;;9.40;5.10;;;;;;;-1.07;79.24;98808.27;105317;1271;75559;-24
2022/02/16 05:18:35;;;;;;;10.20;6.70;;;;;;;-1.35;79.94;98804.35;105185;1271;75005;-24
2022/02/16 05:21:12;;;;;;;7.20;4.30;;;;;;;-1.61;80.72;98802.38;105010;1271;73327;-25
2022/02/16 05:23:44;;;;;;;10.60;4.40;;;;;;;-1.80;81.46;98803.21;105233;1271;61831;-24
2022/02/16 05:26:14;;;;;;;12.20;5.80;;;;;;;-1.39;80.95;98802.61;105381;1271;62176;-23
2022/02/16 05:28:43;;;;;;;15.30;8.30;;;;;;;-0.81;79.62;98800.96;105021;1271;75532;-23
2022/02/16 05:31:11;;;;;;;13.60;7.40;;;;;;;-0.72;78.95;98803.02;105126;1271;76009;-23
2022/02/16 05:33:40;;;;;;;16.90;8.60;;;;;;;-0.91;79.08;98798.42;104851;1271;73465;-24
2022/02/16 05:36:12;;;;;;;12.40;6.30;;;;;;;-1.16;79.96;98798.17;105003;1271;61042;-23
2022/02/16 05:38:41;;;;;;;11.40;6.60;;;;;;;-1.37;80.46;98801.37;105380;1270;61029;-23
2022/02/16 05:41:09;;;;;;;12.80;7.10;;;;;;;-1.56;80.83;98800.32;105270;1271;75297;-23
2022/02/16 05:43:39;;;;;;;9.30;5.30;;;;;;;-1.68;81.14;98802.45;105427;1271;75036;-23
2022/02/16 05:46:10;;;;;;;9.80;5.50;;;;;;;-1.18;80.76;98800.31;105385;1271;74518;-23
2022/02/16 05:48:45;;;;;;;15.30;8.00;;;;;;;-0.49;79.20;98798.00;105123;1272;60990;-23
2022/02/16 05:51:14;;;;;;;10.70;6.60;;;;;;;-0.35;78.47;98801.38;105393;1271;62113;-23
2022/02/16 05:53:43;;;;;;;13.70;7.20;;;;;;;-0.46;78.51;98808.46;105134;1271;75640;-23
2022/02/16 05:56:12;;;;;;;9.90;5.50;;;;;;;-0.63;78.67;98810.66;105377;1271;75830;-23
2022/02/16 05:58:40;;;;;;;10.50;6.30;;;;;;;-0.81;78.95;98815.48;105263;1271;72364;-22
2022/02/16 06:01:09;;;;;;;11.50;7.30;;;;;;;-1.00;79.33;98812.59;105092;1272;61036;-22
2022/02/16 06:03:50;;;;;;;16.40;6.90;;;;;;;-1.20;79.63;98809.58;105207;1271;61093;-22
2022/02/16 06:06:19;;;;;;;9.80;5.80;;;;;;;-1.34;80.52;98802.27;105199;1270;76084;-22
2022/02/16 06:08:48;;;;;;;11.80;6.90;;;;;;;-0.84;80.64;98802.27;105215;1271;75841;-22
2022/02/16 06:11:19;;;;;;;18.70;10.40;;;;;;;-0.23;78.95;98800.90;105391;1271;74414;-22
2022/02/16 06:13:52;;;;;;;12.60;7.30;;;;;;;-0.10;78.43;98807.90;105370;1270;61476;-22
2022/02/16 06:16:21;;;;;;;12.60;7.00;;;;;;;-0.21;78.71;98814.63;105416;1271;61828;-22
2022/02/16 06:18:50;;;;;;;16.60;8.30;;;;;;;-0.39;79.24;98812.27;105296;1270;75638;-22
2022/02/16 06:21:19;;;;;;;16.60;8.80;;;;;;;-0.57;80.01;98819.31;105176;1271;75495;-22
2022/02/16 06:23:50;;;;;;;13.20;8.00;;;;;;;-0.69;80.25;98821.66;105042;1271;74222;-22
2022/02/16 06:26:20;;;;;;;14.40;7.90;;;;;;;-0.76;80.89;98815.60;105011;1271;61012;-22
2022/02/16 06:28:48;;;;;;;10.00;6.30;;;;;;;-0.18;79.90;98813.98;104727;1271;226706;-22
2022/02/16 06:31:18;;;;;;;15.40;7.90;;;;;;;0.41;78.03;98813.40;104954;1271;73460;-22
2022/02/16 06:33:47;;;;;;;11.30;6.80;;;;;;;0.35;77.61;98822.04;105149;1269;75138;-22
2022/02/16 06:36:15;;;;;;;9.50;5.40;;;;;;;0.21;78.12;98821.94;105122;1271;74231;-23
2022/02/16 06:38:43;;;;;;;17.10;10.10;;;;;;;-0.02;78.93;98817.09;104938;1271;61019;-22
2022/02/16 06:41:13;;;;;;;12.10;6.50;;;;;;;-0.21;79.69;98816.68;104962;1271;61440;-22
2022/02/16 06:43:41;;;;;;;15.40;8.10;;;;;;;-0.28;80.04;98811.48;104880;1271;74552;-25
2022/02/16 06:46:09;;;;;;;21.70;10.90;;;;;;;0.25;79.40;98813.79;105135;1271;75868;-22
2022/02/16 06:48:39;;;;;;;20.30;10.50;;;;;;;0.55;78.13;98811.09;105408;1271;74394;-23
2022/02/16 06:51:07;;;;;;;19.80;11.00;;;;;;;0.43;78.11;98814.17;105356;1271;61047;-22
2022/02/16 06:53:35;;;;;;;15.40;7.50;;;;;;;0.22;78.58;98821.05;105412;1271;61140;-22
2022/02/16 06:56:04;;;;;;;24.40;13.10;;;;;;;-0.05;79.29;98820.82;105397;1271;75449;-22
2022/02/16 06:58:52;;;;;;;9.10;5.20;;;;;;;-0.28;80.66;98820.91;105173;1271;75875;-22
2022/02/16 07:01:26;;;;;;;11.80;6.50;;;;;;;0.03;80.04;98817.73;105111;1271;72807;-22
2022/02/16 07:03:54;;;;;;;15.30;8.60;;;;;;;0.06;79.85;98817.98;105310;1271;61157;-22
2022/02/16 07:06:27;;;;;;;17.60;8.70;;;;;;;0.02;79.76;98819.85;105207;1270;61075;-22
2022/02/16 07:08:57;;;;;;;16.00;8.60;;;;;;;-0.23;80.62;98821.72;104968;1271;75041;-22
2022/02/16 07:11:25;;;;;;;11.00;6.30;;;;;;;-0.46;81.91;98817.02;104734;1272;76043;-22
2022/02/16 07:13:54;;;;;;;9.20;6.40;;;;;;;-0.10;81.39;98819.15;105208;1271;74615;-23
2022/02/16 07:16:22;;;;;;;20.80;9.30;;;;;;;0.15;80.09;98815.89;105143;1271;62078;-22
2022/02/16 07:18:52;;;;;;;16.00;8.70;;;;;;;0.19;79.99;98812.14;105201;1271;62097;-22
2022/02/16 07:21:26;;;;;;;14.20;7.20;;;;;;;0.06;80.47;98807.71;105128;1271;75285;-22
2022/02/16 07:24:04;;;;;;;10.70;5.30;;;;;;;-0.12;81.13;98813.60;105369;1271;76073;-23
2022/02/16 07:26:37;;;;;;;13.40;8.30;;;;;;;0.03;81.50;98819.27;105176;1271;74517;-22
2022/02/16 07:29:07;;;;;;;10.50;6.70;;;;;;;0.52;79.69;98824.20;105273;1271;61166;-22
2022/02/16 07:31:40;;;;;;;11.60;6.10;;;;;;;0.38;79.53;98829.26;105024;1271;61183;-22
2022/02/16 07:34:08;;;;;;;14.80;8.80;;;;;;;0.25;80.00;98826.59;105364;1271;75611;-22
2022/02/16 07:36:37;;;;;;;17.50;10.00;;;;;;;0.16;80.51;98813.31;105418;1271;74925;-22
2022/02/16 07:39:06;;;;;;;13.30;8.20;;;;;;;0.01;81.56;98803.02;104946;1271;73201;-22
2022/02/16 07:41:35;;;;;;;11.40;7.50;;;;;;;0.43;80.86;98804.98;105034;1269;61038;-22
2022/02/16 07:44:26;;;;;;;13.10;7.80;;;;;;;0.71;79.17;98811.94;104884;1271;61555;-22
2022/02/16 07:47:02;;;;;;;13.40;8.60;;;;;;;0.54;79.54;98813.70;104944;1271;74036;-23
2022/02/16 07:49:30;;;;;;;13.50;8.40;;;;;;;0.37;79.75;98807.95;104876;1271;74726;-22
2022/02/16 07:52:17;;;;;;;7.20;4.30;;;;;;;0.13;80.71;98804.68;104974;1271;74816;-22
2022/02/16 07:55:28;;;;;;;12.50;6.80;;;;;;;0.55;80.97;98809.21;101847;1310;599687;-24
2022/02/16 07:58:01;;;;;;;18.70;8.90;;;;;;;1.00;78.94;98812.36;104299;1284;62061;-24
2022/02/16 08:00:32;;;;;;;16.60;8.70;;;;;;;0.91;78.06;98812.25;104453;1284;61776;-24
2022/02/16 08:03:08;;;;;;;11.70;6.00;;;;;;;0.51;79.41;98819.13;104237;1287;73912;-23
2022/02/16 08:05:39;;;;;;;13.60;8.30;;;;;;;0.10;80.93;98820.18;104363;1284;76254;-23
2022/02/16 08:08:25;;;;;;;11.50;5.50;;;;;;;0.07;81.37;98818.09;103360;1287;366131;-23
2022/02/16 08:10:55;;;;;;;14.90;8.90;;;;;;;0.35;80.84;98822.72;104144;1287;61069;-23
2022/02/16 08:13:25;;;;;;;19.60;10.10;;;;;;;0.60;79.56;98819.59;104184;1287;61051;-23
2022/02/16 08:16:07;;;;;;;15.40;8.70;;;;;;;0.38;79.64;98808.59;104187;1287;72574;-24
2022/02/16 08:18:40;;;;;;;20.50;7.20;;;;;;;0.17;80.90;98808.31;104203;1287;74245;-24
2022/02/16 08:21:09;;;;;;;18.80;9.80;;;;;;;0.21;81.18;98799.77;104190;1283;73407;-23
2022/02/16 08:23:43;;;;;;;18.70;8.90;;;;;;;0.71;80.59;98784.41;104428;1284;61194;-23
2022/02/16 08:26:11;;;;;;;21.00;12.30;;;;;;;0.99;79.12;98778.19;104452;1283;61291;-22
2022/02/16 08:28:44;;;;;;;11.30;6.70;;;;;;;0.89;78.95;98772.86;104326;1283;74695;-23
2022/02/16 08:31:15;;;;;;;18.80;12.10;;;;;;;0.58;79.55;98779.02;104335;1284;76454;-23
2022/02/16 08:34:02;;;;;;;16.00;10.10;;;;;;;0.17;80.89;98780.45;104389;1284;73289;-23
2022/02/16 08:36:37;;;;;;;24.70;10.80;;;;;;;0.34;80.98;98781.45;104315;1284;61106;-22
2022/02/16 08:39:06;;;;;;;17.20;11.80;;;;;;;0.67;79.82;98779.13;104271;1281;62145;-23
2022/02/16 08:41:38;;;;;;;16.90;9.10;;;;;;;0.54;79.67;98774.94;104351;1281;74717;-23
2022/02/16 08:44:06;;;;;;;13.20;8.30;;;;;;;0.40;80.62;98776.55;104383;1281;74879;-23
2022/02/16 08:46:35;;;;;;;26.40;9.40;;;;;;;0.22;80.79;98776.17;104482;1279;72843;-23
2022/02/16 08:49:04;;;;;;;18.20;10.70;;;;;;;0.56;81.17;98780.13;104639;1281;61146;-23
2022/02/16 08:51:32;;;;;;;19.70;10.10;;;;;;;1.00;79.57;98786.38;104506;1280;61076;-23
2022/02/16 08:54:00;;;;;;;11.50;7.40;;;;;;;1.08;78.79;98787.56;104583;1280;74444;-23
2022/02/16 08:56:31;;;;;;;17.30;10.00;;;;;;;0.92;78.84;98783.98;104662;1281;76132;-23
2022/02/16 08:59:00;;;;;;;17.30;9.30;;;;;;;0.71;79.53;98763.39;104690;1281;74612;-23
2022/02/16 09:01:32;;;;;;;19.20;9.80;;;;;;;0.79;80.20;98759.80;104628;1280;61131;-24
2022/02/16 09:04:01;;;;;;;11.80;6.40;;;;;;;1.31;78.28;98770.72;104668;1279;61312;-22
2022/02/16 09:06:30;;;;;;;19.20;10.20;;;;;;;1.24;77.63;98776.89;104499;1281;74780;-23
2022/02/16 09:08:59;;;;;;;17.60;10.00;;;;;;;1.01;78.61;98781.86;104506;1281;76183;-22
2022/02/16 09:11:29;;;;;;;12.70;7.30;;;;;;;0.97;78.47;98791.13;104513;1280;74451;-23
2022/02/16 09:14:16;;;;;;;14.70;7.30;;;;;;;0.73;79.06;98788.26;104564;1281;61004;-23
2022/02/16 09:16:47;;;;;;;17.70;9.90;;;;;;;0.89;79.46;98777.13;104459;1280;61779;-23
2022/02/16 09:19:15;;;;;;;20.70;11.00;;;;;;;1.55;77.67;98787.70;104464;1281;74351;-23
2022/02/16 09:21:45;;;;;;;10.20;6.20;;;;;;;1.60;76.55;98785.41;104603;1281;77088;-23
2022/02/16 09:24:13;;;;;;;11.70;7.00;;;;;;;1.22;77.04;98780.55;104522;1280;73291;-23
2022/02/16 09:26:42;;;;;;;18.40;8.40;;;;;;;1.00;77.95;98780.91;104540;1281;61035;-23
2022/02/16 09:29:10;;;;;;;21.70;12.00;;;;;;;0.76;78.74;98781.29;104577;1281;61169;-23
2022/02/16 09:31:39;;;;;;;12.40;8.30;;;;;;;0.71;79.59;98781.52;104626;1281;74928;-23
2022/02/16 09:34:07;;;;;;;24.10;12.90;;;;;;;0.95;79.07;98779.09;104563;1281;76165;-22
2022/02/16 09:36:36;;;;;;;19.60;10.80;;;;;;;1.10;78.30;98775.45;104631;1281;74280;-22
2022/02/16 09:39:05;;;;;;;25.00;13.40;;;;;;;0.76;79.45;98773.09;104604;1281;61054;-23
2022/02/16 09:41:38;;;;;;;22.20;12.80;;;;;;;0.45;80.61;98762.85;104535;1279;60985;-23
2022/02/16 09:44:14;;;;;;;12.00;6.90;;;;;;;0.46;81.42;98756.32;104390;1278;73143;-23
2022/02/16 09:46:43;;;;;;;14.50;8.00;;;;;;;1.09;79.10;98758.62;104426;1281;76134;-23
2022/02/16 09:49:13;;;;;;;18.30;12.40;;;;;;;1.27;78.24;98759.80;104943;1271;73892;-23
2022/02/16 09:51:42;;;;;;;21.50;13.00;;;;;;;1.11;78.34;98748.77;105119;1271;61885;-23
2022/02/16 09:54:12;;;;;;;17.70;10.70;;;;;;;0.78;79.33;98741.73;105151;1271;62220;-23
2022/02/16 09:56:43;;;;;;;17.80;9.90;;;;;;;0.43;81.00;98738.54;105161;1271;74555;-25
2022/02/16 09:59:11;;;;;;;18.10;10.40;;;;;;;0.79;80.41;98738.24;105134;1271;74493;-23
2022/02/16 10:02:03;;;;;;;21.00;12.00;;;;;;;1.22;78.46;98739.19;105109;1271;74452;-23
2022/02/16 10:04:32;;;;;;;17.50;10.20;;;;;;;1.11;78.07;98728.77;105121;1271;61146;-23
2022/02/16 10:07:23;;;;;;;28.20;15.40;;;;;;;0.88;79.25;98725.05;105050;1271;61915;-23
2022/02/16 10:09:52;;;;;;;20.60;11.90;;;;;;;0.72;79.83;98714.81;105022;1271;73578;-23
2022/02/16 10:12:31;;;;;;;15.20;7.50;;;;;;;0.75;80.12;98695.54;105074;1271;75990;-23
2022/02/16 10:14:59;;;;;;;15.40;9.00;;;;;;;1.27;78.47;98683.52;104730;1271;74454;-24
2022/02/16 10:17:29;;;;;;;14.30;8.20;;;;;;;1.47;78.00;98685.09;104983;1271;61158;-23
2022/02/16 10:20:07;;;;;;;18.80;9.60;;;;;;;1.52;77.47;98680.41;105028;1271;61115;-23
2022/02/16 10:22:49;;;;;;;15.30;9.30;;;;;;;1.30;77.38;98677.71;105114;1272;74532;-23
2022/02/16 10:25:20;;;;;;;12.80;7.60;;;;;;;1.21;78.12;98680.25;105145;1271;73803;-24
2022/02/16 10:28:06;;;;;;;24.20;12.30;;;;;;;1.71;77.81;98667.17;105129;1271;72524;-24
2022/02/16 10:30:38;;;;;;;15.40;9.30;;;;;;;2.23;75.48;98662.55;105109;1271;61147;-23
2022/02/16 10:33:35;;;;;;;18.50;9.70;;;;;;;2.21;74.90;98659.11;105144;1271;61172;-23
2022/02/16 10:36:14;;;;;;;15.20;9.70;;;;;;;1.99;75.44;98656.83;105047;1271;74825;-23
2022/02/16 10:39:00;;;;;;;17.00;9.90;;;;;;;1.71;75.73;98656.36;105121;1271;73496;-24
2022/02/16 10:41:31;;;;;;;10.50;6.40;;;;;;;1.38;76.55;98652.36;104815;1271;74512;-24
2022/02/16 10:44:00;;;;;;;13.60;9.00;;;;;;;1.21;77.49;98653.70;105133;1274;63065;-23
2022/02/16 10:46:30;;;;;;;14.60;7.60;;;;;;;1.50;76.57;98664.58;105114;1271;61114;-23
2022/02/16 10:49:12;;;;;;;15.40;7.50;;;;;;;1.50;76.32;98658.45;105024;1271;73666;-23
2022/02/16 10:52:09;;;;;;;15.60;9.90;;;;;;;1.18;77.24;98647.38;105030;1271;75020;-23
2022/02/16 10:54:41;;;;;;;9.70;5.40;;;;;;;0.97;78.46;98644.10;105071;1271;74399;-23
2022/02/16 10:57:09;;;;;;;14.30;8.30;;;;;;;0.94;79.17;98651.92;105066;1271;61153;-23
2022/02/16 10:59:38;;;;;;;17.60;9.40;;;;;;;1.50;77.79;98631.79;105128;1274;61127;-23
2022/02/16 11:02:07;;;;;;;15.00;8.10;;;;;;;1.89;76.42;98624.11;105125;1271;74502;-23
2022/02/16 11:04:36;;;;;;;15.90;8.50;;;;;;;2.03;76.20;98609.52;104977;1271;75735;-23
2022/02/16 11:07:04;;;;;;;24.40;14.40;;;;;;;2.11;75.93;98596.95;104881;1271;74398;-24
2022/02/16 11:09:37;;;;;;;22.40;11.60;;;;;;;2.31;75.07;98582.86;104940;1271;61157;-22
2022/02/16 11:12:06;;;;;;;33.00;18.60;;;;;;;2.52;74.55;98582.88;104785;1271;61147;-22
2022/02/16 11:14:35;;;;;;;27.70;15.70;;;;;;;2.63;74.54;98580.95;104828;1271;75579;-24
2022/02/16 11:17:09;;;;;;;16.50;10.80;;;;;;;2.81;73.63;98581.43;104936;1271;75037;-24
2022/02/16 11:19:46;;;;;;;19.70;10.90;;;;;;;3.35;71.48;98579.86;104865;1271;74078;-22
2022/02/16 11:22:21;;;;;;;19.50;11.90;;;;;;;3.45;70.89;98576.91;104790;1271;61124;-22
2022/02/16 11:24:54;;;;;;;26.10;14.70;;;;;;;3.38;70.85;98562.86;104824;1271;62245;-23
2022/02/16 11:27:31;;;;;;;18.30;10.60;;;;;;;3.39;71.21;98568.34;104951;1271;73738;-22
2022/02/16 11:30:05;;;;;;;13.90;8.30;;;;;;;3.50;70.99;98567.89;104786;1271;75005;-23
2022/02/16 11:32:35;;;;;;;31.90;18.70;;;;;;;3.30;70.48;98564.40;104758;1271;73075;-22
2022/02/16 11:35:24;;;;;;;26.00;15.10;;;;;;;3.24;71.49;98571.79;104818;1274;61282;-23
2022/02/16 11:38:01;;;;;;;20.90;12.50;;;;;;;3.39;70.94;98575.36;104823;1271;61176;-23
2022/02/16 11:40:41;;;;;;;17.80;11.70;;;;;;;3.39;70.38;98583.61;105131;1271;72897;-23
2022/02/16 11:43:10;;;;;;;21.00;11.90;;;;;;;3.33;71.15;98579.84;105140;1271;76046;-23